createdAt,value
2017-05-30T00:02:23.909Z,7.85
2017-05-30T00:04:52.208Z,8.03
2017-05-30T00:07:20.506Z,9.22
2017-05-30T00:09:49.305Z,8.50
2017-05-30T00:12:17.675Z,9.45
2017-05-30T00:14:45.955Z,7.88
2017-05-30T00:17:14.223Z,8.72
2017-05-30T00:19:42.500Z,8.03
2017-05-30T00:22:10.888Z,8.25
2017-05-30T00:24:39.172Z,8.33
2017-05-30T00:27:07.497Z,9.05
2017-05-30T00:29:35.826Z,7.83
2017-05-30T00:32:04.111Z,8.28
2017-05-30T00:34:32.409Z,8.02
2017-05-30T00:37:00.702Z,8.13
2017-05-30T00:39:28.982Z,8.48
2017-05-30T00:41:57.250Z,8.28
2017-05-30T00:44:25.548Z,8.68
2017-05-30T00:46:53.828Z,9.10
2017-05-30T00:49:22.108Z,7.63
2017-05-30T00:51:50.501Z,9.28
2017-05-30T00:54:18.851Z,8.97
2017-05-30T00:56:47.180Z,9.13
2017-05-30T00:59:15.465Z,8.57
2017-05-30T01:01:43.808Z,9.47
2017-05-30T01:04:12.111Z,8.08
2017-05-30T01:06:40.448Z,8.47
2017-05-30T01:09:08.734Z,8.15
2017-05-30T01:11:37.015Z,7.37
2017-05-30T01:14:05.325Z,9.40
2017-05-30T01:16:33.599Z,7.83
2017-05-30T01:19:01.997Z,9.00
2017-05-30T01:21:30.591Z,8.25
2017-05-30T01:23:58.886Z,7.55
2017-05-30T01:26:27.171Z,9.12
2017-05-30T01:28:55.458Z,9.58
2017-05-30T01:31:23.013Z,8.85
2017-05-30T01:33:51.346Z,9.00
2017-05-30T01:36:19.691Z,9.55
2017-05-30T01:38:48.045Z,9.60
2017-05-30T01:41:16.348Z,8.83
2017-05-30T01:43:44.623Z,9.25
2017-05-30T01:46:12.923Z,8.32
2017-05-30T01:48:41.199Z,9.52
2017-05-30T01:51:09.492Z,9.20
2017-05-30T01:53:37.806Z,9.65
2017-05-30T01:56:06.094Z,9.03
2017-05-30T01:58:34.385Z,10.30
2017-05-30T02:01:02.663Z,9.57
2017-05-30T02:03:30.943Z,9.95
2017-05-30T02:05:59.214Z,9.90
2017-05-30T02:08:27.857Z,10.48
2017-05-30T02:10:56.123Z,9.52
2017-05-30T02:13:24.412Z,9.75
2017-05-30T02:15:52.717Z,9.77
2017-05-30T02:18:21.040Z,10.75
2017-05-30T02:20:49.315Z,10.00
2017-05-30T02:23:17.597Z,9.33
2017-05-30T02:25:45.936Z,10.05
2017-05-30T02:28:14.271Z,9.47
2017-05-30T02:30:42.546Z,10.02
2017-05-30T02:33:10.822Z,9.87
2017-05-30T02:35:39.123Z,10.20
2017-05-30T02:38:07.402Z,9.77
2017-05-30T02:40:35.710Z,9.47
2017-05-30T02:43:03.993Z,10.37
2017-05-30T02:45:32.278Z,8.33
2017-05-30T02:48:00.550Z,9.57
2017-05-30T02:50:28.843Z,9.35
2017-05-30T02:52:57.116Z,8.52
2017-05-30T02:55:25.390Z,10.23
2017-05-30T02:57:53.666Z,9.47
2017-05-30T03:00:21.989Z,9.82
2017-05-30T03:02:50.293Z,9.82
2017-05-30T03:05:18.576Z,8.80
2017-05-30T03:07:46.084Z,8.68
2017-05-30T03:10:13.601Z,7.70
2017-05-30T03:12:41.878Z,8.85
2017-05-30T03:15:10.154Z,8.65
2017-05-30T03:17:37.734Z,8.60
2017-05-30T03:20:06.194Z,8.75
2017-05-30T03:22:34.479Z,8.28
2017-05-30T03:25:02.763Z,8.17
2017-05-30T03:27:31.035Z,9.22
2017-05-30T03:29:59.323Z,9.18
2017-05-30T03:32:27.634Z,8.73
2017-05-30T03:34:55.891Z,8.80
2017-05-30T03:37:24.212Z,8.32
2017-05-30T03:39:52.548Z,9.38
2017-05-30T03:42:20.824Z,9.47
2017-05-30T03:44:49.105Z,9.22
2017-05-30T03:47:17.427Z,10.07
2017-05-30T03:49:45.734Z,9.18
2017-05-30T03:52:14.027Z,7.83
2017-05-30T03:54:42.302Z,8.72
2017-05-30T03:57:10.602Z,10.12
2017-05-30T03:59:38.874Z,8.82
2017-05-30T04:02:07.163Z,9.27
2017-05-30T04:04:35.484Z,8.82
2017-05-30T04:07:03.747Z,10.55
2017-05-30T04:09:32.743Z,9.83
2017-05-30T04:12:01.033Z,10.62
2017-05-30T04:14:29.316Z,10.12
2017-05-30T04:16:57.621Z,9.68
2017-05-30T04:19:25.963Z,10.48
2017-05-30T04:21:54.232Z,11.30
2017-05-30T04:24:22.551Z,11.38
2017-05-30T04:26:50.842Z,10.73
2017-05-30T04:29:19.106Z,9.85
2017-05-30T04:31:47.420Z,11.00
2017-05-30T04:34:15.707Z,10.77
2017-05-30T04:36:43.988Z,10.33
2017-05-30T04:39:12.254Z,9.33
2017-05-30T04:41:40.540Z,10.90
2017-05-30T04:44:08.807Z,10.27
2017-05-30T04:46:37.174Z,10.50
2017-05-30T04:49:05.443Z,10.97
2017-05-30T04:51:33.735Z,10.60
2017-05-30T04:54:02.071Z,10.72
2017-05-30T04:56:30.343Z,11.43
2017-05-30T04:58:58.662Z,10.77
2017-05-30T05:01:26.967Z,9.95
2017-05-30T05:03:55.295Z,9.57
2017-05-30T05:06:23.588Z,10.33
2017-05-30T05:08:51.866Z,10.13
2017-05-30T05:11:20.189Z,9.90
2017-05-30T05:13:48.465Z,10.63
2017-05-30T05:16:16.765Z,9.63
2017-05-30T05:18:45.054Z,9.63
2017-05-30T05:21:13.328Z,9.90
2017-05-30T05:23:41.628Z,14.55
2017-05-30T05:26:09.926Z,12.38
2017-05-30T05:28:38.219Z,9.15
2017-05-30T05:31:06.537Z,14.80
2017-05-30T05:33:34.839Z,10.25
2017-05-30T05:36:03.211Z,10.95
2017-05-30T05:38:31.487Z,9.37
2017-05-30T05:40:59.780Z,10.43
2017-05-30T05:43:28.076Z,9.60
2017-05-30T05:45:56.427Z,10.37
2017-05-30T05:48:24.704Z,14.15
2017-05-30T05:50:53.010Z,11.80
2017-05-30T05:53:20.510Z,9.77
2017-05-30T05:55:49.227Z,10.65
2017-05-30T05:58:17.580Z,14.00
2017-05-30T06:00:45.887Z,15.18
2017-05-30T06:03:14.164Z,9.13
2017-05-30T06:05:42.476Z,13.47
2017-05-30T06:08:10.044Z,10.38
2017-05-30T06:10:38.342Z,10.08
2017-05-30T06:13:06.638Z,11.62
2017-05-30T06:15:34.932Z,11.05
2017-05-30T06:18:03.227Z,9.98
2017-05-30T06:20:31.536Z,9.95
2017-05-30T06:22:59.830Z,12.38
2017-05-30T06:25:28.144Z,11.25
2017-05-30T06:27:56.432Z,10.95
2017-05-30T06:30:24.772Z,11.32
2017-05-30T06:32:53.936Z,9.20
2017-05-30T06:35:22.246Z,9.22
2017-05-30T06:37:50.533Z,10.60
2017-05-30T06:40:18.808Z,9.35
2017-05-30T06:42:47.076Z,10.67
2017-05-30T06:45:15.367Z,10.27
2017-05-30T06:47:43.642Z,10.27
2017-05-30T06:50:11.207Z,13.70
2017-05-30T06:52:38.728Z,8.53
2017-05-30T06:55:06.257Z,9.45
2017-05-30T06:57:34.549Z,10.43
2017-05-30T07:00:02.855Z,10.12
2017-05-30T07:02:31.143Z,10.65
2017-05-30T07:04:59.420Z,8.67
2017-05-30T07:07:27.702Z,9.62
2017-05-30T07:09:55.991Z,10.65
2017-05-30T07:12:24.399Z,10.78
2017-05-30T07:14:52.695Z,10.73
2017-05-30T07:17:20.997Z,11.35
2017-05-30T07:19:49.291Z,12.27
2017-05-30T07:22:17.618Z,13.08
2017-05-30T07:24:45.922Z,11.70
2017-05-30T07:27:14.209Z,11.78
2017-05-30T07:29:42.504Z,9.85
2017-05-30T07:32:10.812Z,10.85
2017-05-30T07:34:39.127Z,10.03
2017-05-30T07:37:07.398Z,13.05
2017-05-30T07:39:35.683Z,10.07
2017-05-30T07:42:03.982Z,10.63
2017-05-30T07:44:32.289Z,12.08
2017-05-30T07:47:00.574Z,10.52
2017-05-30T07:49:28.867Z,10.42
2017-05-30T07:51:57.172Z,10.02
2017-05-30T07:54:25.506Z,9.82
2017-05-30T07:56:53.802Z,10.97
2017-05-30T07:59:22.126Z,9.95
2017-05-30T08:01:50.408Z,14.90
2017-05-30T08:04:18.683Z,12.48
2017-05-30T08:06:46.199Z,11.98
2017-05-30T08:09:14.483Z,9.65
2017-05-30T08:11:42.778Z,10.97
2017-05-30T08:14:11.072Z,11.62
2017-05-30T08:16:39.386Z,10.07
2017-05-30T08:19:07.707Z,11.38
2017-05-30T08:21:36.016Z,10.82
2017-05-30T08:24:04.310Z,11.55
2017-05-30T08:26:32.611Z,10.45
2017-05-30T08:29:00.119Z,10.50
2017-05-30T08:31:28.454Z,10.52
2017-05-30T08:33:56.758Z,10.40
2017-05-30T08:36:25.048Z,10.22
2017-05-30T08:38:53.336Z,10.35
2017-05-30T08:41:21.626Z,11.38
2017-05-30T08:43:49.949Z,10.82
2017-05-30T08:46:18.516Z,10.38
2017-05-30T08:48:46.844Z,10.27
2017-05-30T08:51:15.131Z,9.80
2017-05-30T08:53:44.048Z,11.67
2017-05-30T08:56:12.387Z,11.22
2017-05-30T08:58:40.807Z,11.50
2017-05-30T09:01:09.086Z,11.32
2017-05-30T09:03:37.378Z,10.47
2017-05-30T09:06:05.720Z,12.03
2017-05-30T09:08:34.017Z,11.78
2017-05-30T09:11:02.342Z,14.82
2017-05-30T09:13:30.649Z,22.05
2017-05-30T09:15:58.953Z,16.83
2017-05-30T09:18:27.242Z,14.05
2017-05-30T09:20:55.532Z,11.32
2017-05-30T09:23:24.128Z,11.63
2017-05-30T09:25:52.413Z,11.70
2017-05-30T09:28:20.710Z,13.22
2017-05-30T09:30:48.996Z,13.32
2017-05-30T09:33:17.313Z,12.35
2017-05-30T09:35:45.607Z,13.72
2017-05-30T09:38:13.903Z,12.65
2017-05-30T09:40:42.231Z,10.57
2017-05-30T09:43:10.655Z,15.65
2017-05-30T09:45:38.962Z,13.77
2017-05-30T09:48:07.250Z,14.58
2017-05-30T09:50:35.532Z,16.33
2017-05-30T09:53:03.823Z,14.53
2017-05-30T09:55:32.104Z,14.17
2017-05-30T09:58:00.437Z,13.47
2017-05-30T10:00:28.754Z,15.03
2017-05-30T10:02:57.087Z,14.63
2017-05-30T10:05:25.398Z,14.85
2017-05-30T10:07:53.702Z,15.73
2017-05-30T10:10:21.990Z,14.30
2017-05-30T10:12:50.318Z,14.95
2017-05-30T10:15:18.631Z,15.58
2017-05-30T10:17:46.963Z,15.50
2017-05-30T10:20:15.285Z,20.78
2017-05-30T10:22:43.563Z,24.17
2017-05-30T10:25:11.884Z,30.55
2017-05-30T10:27:40.174Z,32.02
2017-05-30T10:30:08.462Z,33.30
2017-05-30T10:32:36.754Z,28.67
2017-05-30T10:35:04.305Z,27.47
2017-05-30T10:37:33.020Z,27.67
2017-05-30T10:40:01.327Z,26.33
2017-05-30T10:42:29.731Z,23.43
2017-05-30T10:44:58.058Z,17.97
2017-05-30T10:47:26.344Z,19.65
2017-05-30T10:49:54.638Z,15.25
2017-05-30T10:52:22.936Z,15.20
2017-05-30T10:54:51.222Z,15.68
2017-05-30T10:57:19.501Z,17.88
2017-05-30T10:59:47.807Z,19.20
2017-05-30T11:02:16.081Z,21.18
2017-05-30T11:04:44.387Z,18.68
2017-05-30T11:07:12.733Z,18.98
2017-05-30T11:09:41.020Z,18.97
2017-05-30T11:12:09.304Z,15.57
2017-05-30T11:14:37.794Z,18.88
2017-05-30T11:17:06.102Z,14.93
2017-05-30T11:19:34.396Z,17.13
2017-05-30T11:22:02.904Z,31.03
2017-05-30T11:24:31.199Z,20.45
2017-05-30T11:26:59.485Z,21.20
2017-05-30T11:29:27.779Z,24.77
2017-05-30T11:31:56.086Z,25.67
2017-05-30T11:34:24.702Z,32.12
2017-05-30T11:36:53.014Z,29.05
2017-05-30T11:39:21.348Z,23.57
2017-05-30T11:41:49.616Z,29.00
2017-05-30T11:44:17.932Z,32.77
2017-05-30T11:46:46.216Z,26.50
2017-05-30T11:49:14.507Z,21.88
2017-05-30T11:51:42.802Z,20.17
2017-05-30T11:54:11.078Z,24.00
2017-05-30T11:56:39.379Z,19.03
2017-05-30T11:59:07.725Z,22.33
2017-05-30T12:01:36.049Z,14.80
2017-05-30T12:04:04.366Z,15.07
2017-05-30T12:06:32.647Z,13.12
2017-05-30T12:09:00.966Z,12.92
2017-05-30T12:11:29.291Z,9.95
2017-05-30T12:13:57.571Z,11.13
2017-05-30T12:16:25.850Z,11.52
2017-05-30T12:18:54.148Z,11.30
2017-05-30T12:21:22.439Z,11.58
2017-05-30T12:23:50.730Z,11.70
2017-05-30T12:26:19.037Z,13.10
2017-05-30T12:28:47.311Z,10.58
2017-05-30T12:31:15.679Z,8.98
2017-05-30T12:33:43.963Z,11.72
2017-05-30T12:36:12.263Z,6.83
2017-05-30T12:38:40.551Z,8.55
2017-05-30T12:41:08.827Z,8.17
2017-05-30T12:43:37.109Z,7.02
2017-05-30T12:46:05.406Z,7.03
2017-05-30T12:48:33.687Z,7.05
2017-05-30T12:51:01.960Z,7.52
2017-05-30T12:53:30.259Z,8.10
2017-05-30T12:55:58.527Z,7.40
2017-05-30T12:58:26.807Z,6.35
2017-05-30T13:00:55.110Z,7.68
2017-05-30T13:03:23.429Z,7.55
2017-05-30T13:05:51.696Z,8.62
2017-05-30T13:08:20.032Z,7.12
2017-05-30T13:10:48.336Z,7.25
2017-05-30T13:13:16.617Z,7.57
2017-05-30T13:15:44.921Z,6.90
2017-05-30T13:18:13.210Z,7.78
2017-05-30T13:20:41.513Z,7.00
2017-05-30T13:23:09.853Z,8.02
2017-05-30T13:25:38.133Z,8.58
2017-05-30T13:28:06.426Z,8.43
2017-05-30T13:30:34.719Z,7.53
2017-05-30T13:33:03.024Z,7.45
2017-05-30T13:35:31.299Z,8.90
2017-05-30T13:37:59.571Z,8.38
2017-05-30T13:40:27.865Z,7.13
2017-05-30T13:42:55.433Z,7.17
2017-05-30T13:45:23.701Z,7.13
2017-05-30T13:47:51.994Z,7.08
2017-05-30T13:50:20.273Z,6.97
2017-05-30T13:52:48.548Z,6.62
2017-05-30T13:55:16.851Z,6.45
2017-05-30T13:57:45.135Z,6.10
2017-05-30T14:00:13.477Z,6.50
2017-05-30T14:02:41.762Z,5.83
2017-05-30T14:05:10.064Z,7.35
2017-05-30T14:07:39.150Z,6.35
2017-05-30T14:10:07.442Z,6.80
2017-05-30T14:12:34.962Z,6.87
2017-05-30T14:15:03.240Z,6.58
2017-05-30T14:17:31.857Z,6.00
2017-05-30T14:20:00.149Z,6.17
2017-05-30T14:22:28.439Z,6.57
2017-05-30T14:24:55.944Z,6.27
2017-05-30T14:27:24.244Z,7.57
2017-05-30T14:29:52.550Z,6.47
2017-05-30T14:32:20.834Z,6.47
2017-05-30T14:34:49.112Z,6.53
2017-05-30T14:37:17.620Z,7.83
2017-05-30T14:39:45.916Z,6.97
2017-05-30T14:42:14.200Z,7.58
2017-05-30T14:44:42.510Z,7.82
2017-05-30T14:47:10.793Z,6.90
2017-05-30T14:49:39.068Z,5.72
2017-05-30T14:52:07.349Z,6.53
2017-05-30T14:54:35.637Z,7.88
2017-05-30T14:57:04.060Z,6.72
2017-05-30T14:59:32.336Z,8.00
2017-05-30T15:02:00.639Z,7.52
2017-05-30T15:04:28.963Z,7.58
2017-05-30T15:06:57.236Z,7.95
2017-05-30T15:09:25.583Z,7.58
2017-05-30T15:11:53.860Z,7.30
2017-05-30T15:14:22.144Z,7.43
2017-05-30T15:16:50.417Z,5.20
2017-05-30T15:19:18.920Z,5.82
2017-05-30T15:21:47.200Z,5.57
2017-05-30T15:24:15.609Z,4.80
2017-05-30T15:26:43.903Z,5.80
2017-05-30T15:29:12.208Z,6.13
2017-05-30T15:31:40.502Z,4.90
2017-05-30T15:34:08.820Z,8.43
2017-05-30T15:36:37.122Z,6.02
2017-05-30T15:39:05.403Z,6.48
2017-05-30T15:41:33.723Z,6.23
2017-05-30T15:44:02.048Z,6.03
2017-05-30T15:46:30.354Z,7.08
2017-05-30T15:48:58.685Z,6.03
2017-05-30T15:51:26.975Z,6.58
2017-05-30T15:53:55.251Z,6.37
2017-05-30T15:56:23.570Z,5.97
2017-05-30T15:58:51.847Z,5.95
2017-05-30T16:01:20.126Z,7.17
2017-05-30T16:03:48.755Z,6.73
2017-05-30T16:06:17.045Z,6.40
2017-05-30T16:08:45.340Z,5.77
2017-05-30T16:11:13.632Z,6.42
2017-05-30T16:13:41.928Z,6.52
2017-05-30T16:16:10.349Z,5.20
2017-05-30T16:18:38.773Z,6.95
2017-05-30T16:21:07.062Z,6.55
2017-05-30T16:23:35.347Z,7.20
2017-05-30T16:26:03.641Z,6.55
2017-05-30T16:28:32.260Z,11.75
2017-05-30T16:31:00.527Z,7.42
2017-05-30T16:33:28.810Z,6.43
2017-05-30T16:35:56.523Z,6.73
2017-05-30T16:38:24.806Z,8.38
2017-05-30T16:40:53.120Z,6.33
2017-05-30T16:43:21.440Z,8.18
2017-05-30T16:45:50.006Z,6.50
2017-05-30T16:48:18.298Z,7.48
2017-05-30T16:50:46.572Z,8.00
2017-05-30T16:53:15.107Z,7.30
2017-05-30T16:55:43.383Z,7.58
2017-05-30T16:58:11.666Z,7.30
2017-05-30T17:00:39.994Z,7.80
2017-05-30T17:03:08.275Z,8.42
2017-05-30T17:05:36.586Z,8.32
2017-05-30T17:08:05.167Z,8.42
2017-05-30T17:10:33.449Z,7.98
2017-05-30T17:13:01.756Z,8.98
2017-05-30T17:15:30.041Z,8.00
2017-05-30T17:17:58.323Z,8.72
2017-05-30T17:20:26.700Z,9.15
2017-05-30T17:22:55.062Z,8.22
2017-05-30T17:25:23.397Z,9.32
2017-05-30T17:27:52.030Z,9.33
2017-05-30T17:30:20.306Z,9.13
2017-05-30T17:32:48.612Z,9.35
2017-05-30T17:35:16.891Z,9.45
2017-05-30T17:37:45.180Z,9.15
2017-05-30T17:40:13.484Z,10.03
2017-05-30T17:42:41.759Z,9.72
2017-05-30T17:45:10.171Z,8.60
2017-05-30T17:47:38.474Z,10.85
2017-05-30T17:50:06.778Z,10.57
2017-05-30T17:52:35.054Z,9.80
2017-05-30T17:55:03.380Z,10.00
2017-05-30T17:57:31.655Z,10.90
2017-05-30T17:59:59.971Z,10.35
2017-05-30T18:02:28.743Z,11.00
2017-05-30T18:04:57.023Z,12.77
2017-05-30T18:07:25.335Z,19.88
2017-05-30T18:09:53.667Z,11.67
2017-05-30T18:12:21.991Z,11.45
2017-05-30T18:14:50.472Z,10.82
2017-05-30T18:17:18.790Z,11.93
2017-05-30T18:19:47.124Z,12.32
2017-05-30T18:22:15.457Z,12.72
2017-05-30T18:24:43.859Z,12.10
2017-05-30T18:27:12.151Z,13.68
2017-05-30T18:29:40.426Z,12.20
2017-05-30T18:32:09.662Z,13.17
2017-05-30T18:34:37.974Z,12.68
2017-05-30T18:37:06.254Z,12.40
2017-05-30T18:39:34.558Z,13.20
2017-05-30T18:42:02.899Z,12.68
2017-05-30T18:44:31.214Z,13.48
2017-05-30T18:47:00.353Z,12.55
2017-05-30T18:49:28.673Z,13.20
2017-05-30T18:51:56.306Z,12.45
2017-05-30T18:54:24.591Z,13.90
2017-05-30T18:56:52.900Z,12.63
2017-05-30T18:59:20.474Z,13.75
2017-05-30T19:01:49.738Z,11.73
2017-05-30T19:04:18.066Z,12.48
2017-05-30T19:06:46.399Z,13.48
2017-05-30T19:09:14.864Z,13.33
2017-05-30T19:11:43.151Z,12.42
2017-05-30T19:14:11.460Z,12.53
2017-05-30T19:16:39.780Z,11.43
2017-05-30T19:19:08.062Z,12.23
2017-05-30T19:21:36.347Z,12.50
2017-05-30T19:24:04.928Z,12.35
2017-05-30T19:26:33.283Z,12.72
2017-05-30T19:29:01.593Z,11.85
2017-05-30T19:31:30.199Z,12.67
2017-05-30T19:33:58.520Z,11.58
2017-05-30T19:36:26.810Z,11.93
2017-05-30T19:38:55.106Z,11.18
2017-05-30T19:41:23.439Z,11.37
2017-05-30T19:43:51.762Z,10.93
2017-05-30T19:46:20.069Z,12.73
2017-05-30T19:48:47.624Z,14.82
2017-05-30T19:51:15.932Z,12.97
2017-05-30T19:53:44.293Z,11.97
2017-05-30T19:56:12.577Z,13.92
2017-05-30T19:58:40.914Z,12.68
2017-05-30T20:01:09.220Z,13.52
2017-05-30T20:03:37.514Z,13.07
2017-05-30T20:06:05.864Z,13.40
2017-05-30T20:08:34.213Z,14.05
2017-05-30T20:11:02.513Z,14.50
2017-05-30T20:13:30.813Z,17.08
2017-05-30T20:15:59.127Z,14.57
2017-05-30T20:18:27.421Z,14.77
2017-05-30T20:20:55.749Z,15.12
2017-05-30T20:23:24.034Z,13.12
2017-05-30T20:43:11.711Z,12.95
2017-05-30T20:45:40.026Z,12.32
2017-05-30T20:48:08.324Z,12.87
2017-05-30T20:50:36.642Z,12.90
2017-05-30T20:53:04.970Z,12.67
2017-05-30T20:55:33.368Z,10.38
2017-05-30T20:58:01.694Z,11.07
2017-05-30T21:00:30.036Z,12.55
2017-05-30T21:02:58.374Z,9.47
2017-05-30T21:05:26.671Z,10.35
2017-05-30T21:07:54.202Z,9.93
2017-05-30T21:10:22.477Z,9.58
2017-05-30T21:12:50.745Z,9.65
2017-05-30T21:15:19.197Z,8.63
2017-05-30T21:17:47.472Z,8.60
2017-05-30T21:20:15.741Z,8.80
2017-05-30T21:22:44.017Z,8.77
2017-05-30T21:25:12.319Z,8.02
2017-05-30T21:45:00.643Z,8.27
2017-05-30T21:47:28.939Z,8.92
2017-05-30T21:49:57.378Z,9.35
2017-05-30T21:52:25.683Z,8.50
2017-05-30T21:54:54.508Z,8.87
2017-05-30T21:57:22.816Z,10.13
2017-05-30T21:59:51.124Z,10.20
2017-05-30T22:02:19.758Z,11.13
2017-05-30T22:04:48.075Z,11.72
2017-05-30T22:07:16.407Z,12.08
2017-05-30T22:09:44.799Z,11.25
2017-05-30T22:12:13.099Z,10.63
2017-05-30T22:14:41.399Z,11.87
2017-05-30T22:17:09.706Z,12.93
2017-05-30T22:19:38.008Z,11.13
2017-05-30T22:22:06.312Z,12.88
2017-05-30T22:24:34.639Z,13.85
2017-05-30T22:27:02.946Z,12.07
2017-05-30T22:29:31.241Z,12.30
2017-05-30T22:31:59.555Z,11.67
2017-05-30T22:34:27.911Z,12.65
2017-05-30T22:36:56.320Z,13.20
2017-05-30T22:39:24.651Z,11.83
2017-05-30T22:41:53.275Z,13.35
2017-05-30T22:44:21.587Z,12.65
2017-05-30T22:46:49.894Z,13.80
2017-05-30T22:49:18.403Z,13.07
2017-05-30T22:51:46.693Z,14.08
2017-05-30T22:54:14.983Z,15.80
2017-05-30T22:56:43.385Z,15.95
2017-05-30T22:59:11.681Z,17.30
2017-05-30T23:01:40.006Z,15.23
2017-05-30T23:04:08.320Z,15.40
2017-05-30T23:06:36.632Z,14.85
2017-05-30T23:09:04.942Z,15.18
2017-05-30T23:11:33.238Z,14.05
2017-05-30T23:14:01.552Z,15.32
2017-05-30T23:16:29.893Z,15.45
2017-05-30T23:18:58.197Z,16.47
2017-05-30T23:21:26.500Z,16.03
2017-05-30T23:23:54.784Z,15.65
2017-05-30T23:26:23.227Z,16.62
2017-05-30T23:28:51.640Z,14.58
2017-05-30T23:31:20.066Z,15.37
2017-05-30T23:33:48.510Z,14.80
2017-05-30T23:36:16.860Z,13.77
2017-05-30T23:38:45.131Z,13.12
2017-05-30T23:41:13.457Z,13.85
2017-05-30T23:43:41.740Z,12.73
2017-05-30T23:46:10.044Z,12.53
2017-05-30T23:48:38.325Z,10.95
2017-05-30T23:51:06.634Z,11.97
2017-05-30T23:53:34.907Z,10.33
2017-05-30T23:56:03.200Z,11.75
2017-05-30T23:58:31.492Z,9.73
